Thunder radar more information blitzortung!


Radar de pluja more information rain snow radar


Visita la nostra xarxa de llocs de meteo:

Template documentation
and downloads

And another site



No particular awareness of the weather is required.    There are no Weather-warnings

Pagina Historial Weather Underground text

Diari Resum Abril 23, 2016 Unitats:  Mètric    Imperial   Tant
« Previous Dia
SegĂźent Dia »
Diari Setmana Mensual Anual Personalitzada
  Maxima: Minima: Media:
Temperatura: 22.6 °C 8.2 °C 14.8 °C
Punt de rosada: 11.6 °C 5.1 °C 8.4 °C
Humitat: 82 % 44 % 67 %
Wind Speed: 24.1 km/h 0.0 km/h 6.1 km/h
RĂ fegues de vent: 24.1 km/h - -
Vent:- - SSE
Pression baro: 1017.8 hPa 1010.0 hPa -
Precipitacions: 1.3 mm    
Historical Graphs
 
 
Dades de taula per Abril 23, 2016
Temps Temperatura Punt de rosada Pression baro Vent Wind Speed RĂ fegues de vent Humitat Rainfall Rate (Hourly)
00:00 13.6 °C 9.2 °C 1017.8 hPa West 1.9 km/h   75 % 0.0 mm
00:05 13.6 °C 9.2 °C 1017.8 hPa West 1.9 km/h 1.9 km/h 75 % 0.0 mm
00:10 13.5 °C 9.2 °C 1017.8 hPa Calm     75 % 0.0 mm
00:15 13.3 °C 9.2 °C 1017.8 hPa Calm     76 % 0.0 mm
00:20 13.2 °C 9.1 °C 1017.8 hPa Calm     76 % 0.0 mm
00:25 13.1 °C 8.9 °C 1017.8 hPa Calm   3.2 km/h 76 % 0.0 mm
00:30 13.0 °C 8.9 °C 1017.8 hPa Calm   3.2 km/h 76 % 0.0 mm
00:35 10.9 °C 7.6 °C 1014.8 hPa Calm   1.6 km/h 80 % 0.0 mm
00:45 10.7 °C 7.4 °C 1014.8 hPa Calm   3.2 km/h 80 % 0.0 mm
00:55 10.6 °C 7.3 °C 1014.8 hPa Calm   1.6 km/h 80 % 0.0 mm
01:05 10.6 °C 7.3 °C 1014.8 hPa Calm     80 % 0.0 mm
01:15 10.5 °C 7.2 °C 1014.8 hPa Calm     80 % 0.0 mm
01:25 10.1 °C 7.0 °C 1014.8 hPa Calm   3.2 km/h 81 % 0.0 mm
01:35 9.9 °C 6.6 °C 1015.8 hPa SSE 1.6 km/h 3.2 km/h 80 % 0.0 mm
01:45 9.9 °C 6.8 °C 1015.8 hPa Calm   1.6 km/h 81 % 0.0 mm
01:55 10.0 °C 6.9 °C 1015.8 hPa West 1.6 km/h 1.6 km/h 81 % 0.0 mm
02:05 10.0 °C 6.9 °C 1015.8 hPa Calm     81 % 0.0 mm
02:15 10.0 °C 6.9 °C 1015.8 hPa NNE 3.2 km/h 3.2 km/h 81 % 0.0 mm
02:25 10.1 °C 7.0 °C 1015.8 hPa Calm   1.6 km/h 81 % 0.0 mm
02:35 10.4 °C 7.3 °C 1015.8 hPa NNE 3.2 km/h 3.2 km/h 81 % 0.0 mm
02:45 10.6 °C 7.3 °C 1015.8 hPa NE 1.6 km/h 4.8 km/h 80 % 0.0 mm
02:55 10.9 °C 7.6 °C 1015.8 hPa NE 1.6 km/h 3.2 km/h 80 % 0.0 mm
03:05 11.1 °C 7.6 °C 1014.8 hPa NE 4.8 km/h 4.8 km/h 79 % 0.0 mm
03:15 11.3 °C 7.8 °C 1016.8 hPa NE 4.8 km/h 6.4 km/h 79 % 0.0 mm
03:25 11.6 °C 8.1 °C 1016.8 hPa NE 4.8 km/h 6.4 km/h 79 % 0.0 mm
03:35 11.8 °C 8.1 °C 1015.8 hPa NE 3.2 km/h 6.4 km/h 78 % 0.0 mm
03:45 12.0 °C 8.3 °C 1015.8 hPa ENE 4.8 km/h 6.4 km/h 78 % 0.0 mm
03:55 12.4 °C 8.5 °C 1015.8 hPa ENE 1.6 km/h 6.4 km/h 77 % 0.0 mm
04:05 12.6 °C 8.5 °C 1015.8 hPa NE 4.8 km/h 6.4 km/h 76 % 0.0 mm
04:15 13.2 °C 9.1 °C 1015.8 hPa NE 3.2 km/h 3.2 km/h 76 % 0.0 mm
04:25 13.6 °C 9.2 °C 1015.8 hPa NNE 1.6 km/h 4.8 km/h 75 % 0.0 mm
04:35 13.3 °C 8.8 °C 1015.8 hPa NW 3.2 km/h 4.8 km/h 74 % 0.0 mm
04:45 13.3 °C 8.8 °C 1014.8 hPa WSW 1.6 km/h 3.2 km/h 74 % 0.0 mm
04:50 13.8 °C 9.2 °C 1014.8 hPa SW 1.6 km/h 3.2 km/h 74 % 0.0 mm
05:00 14.6 °C 9.4 °C 1014.8 hPa SSE 3.2 km/h 4.8 km/h 71 % 0.0 mm
05:10 15.1 °C 9.9 °C 1015.8 hPa SSE 1.6 km/h 4.8 km/h 71 % 0.0 mm
10:18 14.7 °C 9.3 °C 1015.8 hPa SSW 3.7 km/h   70 % 0.0 mm
10:23 14.8 °C 9.4 °C 1015.8 hPa WSW 5.6 km/h 5.6 km/h 70 % 0.0 mm
10:28 15.1 °C 9.7 °C 1015.8 hPa SW 3.7 km/h 3.7 km/h 70 % 0.0 mm
10:33 15.6 °C 10.2 °C 1015.8 hPa NNW 3.7 km/h 3.9 km/h 70 % 0.0 mm
10:38 15.8 °C 10.1 °C 1015.8 hPa South 3.7 km/h 3.7 km/h 69 % 0.0 mm
10:43 15.7 °C 10.0 °C 1015.8 hPa West 5.6 km/h 5.6 km/h 69 % 0.0 mm
10:48 15.5 °C 9.8 °C 1015.8 hPa WSW 7.4 km/h 7.4 km/h 69 % 0.0 mm
10:53 16.1 °C 10.2 °C 1015.8 hPa East 5.6 km/h 5.6 km/h 68 % 0.0 mm
10:58 16.3 °C 10.4 °C 1015.8 hPa NE 4.7 km/h 4.7 km/h 68 % 0.0 mm
11:03 16.5 °C 10.6 °C 1015.8 hPa NNE 5.6 km/h 5.6 km/h 68 % 0.0 mm
11:08 16.7 °C 10.8 °C 1015.8 hPa NNE 5.6 km/h 5.6 km/h 68 % 0.0 mm
11:13 16.5 °C 10.3 °C 1015.8 hPa ENE 3.7 km/h 3.7 km/h 67 % 0.0 mm
11:18 16.5 °C 10.3 °C 1015.8 hPa NW 3.7 km/h 3.7 km/h 67 % 0.0 mm
11:23 16.9 °C 10.7 °C 1015.8 hPa NNE 5.6 km/h 5.6 km/h 67 % 0.0 mm
11:28 16.8 °C 10.4 °C 1015.8 hPa ENE 5.6 km/h 5.6 km/h 66 % 0.0 mm
11:33 16.6 °C 10.2 °C 1015.8 hPa ENE 5.8 km/h 5.8 km/h 66 % 0.0 mm
11:38 16.7 °C 10.3 °C 1015.8 hPa ENE 5.8 km/h 5.8 km/h 66 % 0.0 mm
11:43 17.1 °C 10.4 °C 1014.8 hPa South 3.7 km/h 3.7 km/h 65 % 0.0 mm
11:49 17.5 °C 10.6 °C 1014.8 hPa East 5.6 km/h 5.6 km/h 64 % 0.0 mm
11:54 17.5 °C 10.6 °C 1014.8 hPa ENE 5.0 km/h 5.0 km/h 64 % 0.0 mm
11:59 17.7 °C 10.8 °C 1014.8 hPa NNW 3.7 km/h 3.7 km/h 64 % 0.0 mm
12:04 18.0 °C 11.1 °C 1014.8 hPa ESE 9.3 km/h 9.3 km/h 64 % 0.0 mm
12:14 18.0 °C 10.8 °C 1014.8 hPa SE 3.7 km/h 3.7 km/h 63 % 0.0 mm
12:19 18.3 °C 11.4 °C 1014.8 hPa SSW 7.4 km/h 7.4 km/h 64 % 0.0 mm
12:24 19.0 °C 11.6 °C 1014.8 hPa SSW 5.6 km/h 5.6 km/h 62 % 0.0 mm
12:29 18.6 °C 11.2 °C 1014.8 hPa East 4.2 km/h 4.2 km/h 62 % 0.0 mm
12:30 22.0 °C 9.2 °C 1010.7 hPa SW 9.7 km/h 9.7 km/h 44 % 0.0 mm
12:34 18.5 °C 11.1 °C 1014.8 hPa North 3.7 km/h 3.9 km/h 62 % 0.0 mm
12:39 19.0 °C 11.3 °C 1014.8 hPa East 9.3 km/h 9.3 km/h 61 % 0.0 mm
12:44 18.9 °C 11.2 °C 1013.8 hPa NE 7.4 km/h 7.4 km/h 61 % 0.0 mm
12:54 19.1 °C 10.9 °C 1013.8 hPa ESE 6.4 km/h 6.4 km/h 59 % 0.0 mm
12:59 19.2 °C 11.0 °C 1013.8 hPa WNW 5.6 km/h 5.6 km/h 59 % 0.0 mm
13:04 19.3 °C 10.8 °C 1013.8 hPa SW 7.4 km/h 7.4 km/h 58 % 0.0 mm
13:09 19.2 °C 10.2 °C 1013.8 hPa East 11.1 km/h 11.1 km/h 56 % 0.0 mm
13:14 19.6 °C 10.3 °C 1013.8 hPa SSE 7.4 km/h 7.4 km/h 55 % 0.0 mm
13:24 19.9 °C 10.6 °C 1013.8 hPa ENE 5.6 km/h 5.6 km/h 55 % 0.0 mm
13:29 20.5 °C 11.2 °C 1013.8 hPa NE 7.6 km/h 7.6 km/h 55 % 0.0 mm
13:34 20.3 °C 10.7 °C 1013.8 hPa SW 7.4 km/h 7.4 km/h 54 % 0.0 mm
13:39 20.4 °C 10.8 °C 1013.8 hPa SW 2.3 km/h 2.3 km/h 54 % 0.0 mm
13:44 20.4 °C 10.8 °C 1013.8 hPa WSW 11.1 km/h 11.1 km/h 54 % 0.0 mm
13:49 20.6 °C 10.7 °C 1013.8 hPa SSW 6.1 km/h 6.1 km/h 53 % 0.0 mm
13:54 20.7 °C 10.5 °C 1013.8 hPa South 7.4 km/h 7.4 km/h 52 % 0.0 mm
13:59 20.7 °C 10.5 °C 1013.8 hPa SW 7.4 km/h 7.4 km/h 52 % 0.0 mm
14:04 20.5 °C 10.3 °C 1013.8 hPa WSW 6.4 km/h 6.4 km/h 52 % 0.0 mm
14:09 20.9 °C 10.7 °C 1013.8 hPa WSW 4.2 km/h 4.2 km/h 52 % 0.0 mm
14:14 21.2 °C 10.3 °C 1013.8 hPa SW 5.6 km/h 5.6 km/h 50 % 0.0 mm
14:19 21.8 °C 10.9 °C 1013.8 hPa SSW 14.8 km/h 14.8 km/h 50 % 0.0 mm
14:24 21.5 °C 10.3 °C 1013.8 hPa SW 11.1 km/h 11.1 km/h 49 % 0.0 mm
14:34 21.6 °C 10.4 °C 1012.8 hPa SW 11.1 km/h 11.1 km/h 49 % 0.0 mm
14:39 21.9 °C 10.7 °C 1012.8 hPa SSW 3.7 km/h 3.7 km/h 49 % 0.0 mm
14:59 22.0 °C 10.8 °C 1011.7 hPa SSW 5.8 km/h 5.8 km/h 49 % 0.0 mm
15:04 21.8 °C 10.6 °C 1011.7 hPa WSW 5.6 km/h 5.6 km/h 49 % 0.0 mm
15:09 21.9 °C 10.7 °C 1011.7 hPa WSW 9.3 km/h 9.3 km/h 49 % 0.0 mm
15:14 21.6 °C 10.1 °C 1011.7 hPa SSW 7.4 km/h 7.4 km/h 48 % 0.0 mm
15:19 22.0 °C 10.8 °C 1011.7 hPa SSW 5.6 km/h 5.6 km/h 49 % 0.0 mm
15:24 22.1 °C 10.9 °C 1011.7 hPa WSW 1.9 km/h 1.9 km/h 49 % 0.0 mm
15:29 22.0 °C 10.8 °C 1010.7 hPa SW 1.9 km/h 1.9 km/h 49 % 0.0 mm
15:34 21.4 °C 10.2 °C 1010.7 hPa SW 5.8 km/h 5.8 km/h 49 % 0.0 mm
15:39 21.0 °C 9.9 °C 1010.7 hPa SW 5.6 km/h 5.6 km/h 49 % 0.0 mm
15:44 20.7 °C 9.9 °C 1011.7 hPa West 5.6 km/h 5.6 km/h 50 % 0.0 mm
15:49 20.7 °C 9.9 °C 1011.7 hPa SW 13.0 km/h 13.0 km/h 50 % 0.0 mm
15:54 21.1 °C 9.7 °C 1011.7 hPa SW 13.0 km/h 13.0 km/h 48 % 0.0 mm
15:59 21.1 °C 9.7 °C 1011.7 hPa SSE 9.3 km/h 9.3 km/h 48 % 0.0 mm
16:04 21.5 °C 10.0 °C 1011.7 hPa SSW 13.0 km/h 13.0 km/h 48 % 0.0 mm
16:14 21.8 °C 10.0 °C 1010.7 hPa SW 9.3 km/h 9.3 km/h 47 % 0.0 mm
16:19 21.6 °C 9.5 °C 1010.7 hPa SW 13.0 km/h 13.0 km/h 46 % 0.0 mm
16:24 22.1 °C 9.9 °C 1010.7 hPa SSW 13.0 km/h 13.0 km/h 46 % 0.0 mm
16:29 22.0 °C 9.8 °C 1010.7 hPa SW 7.4 km/h 7.4 km/h 46 % 0.0 mm
16:34 22.6 °C 10.4 °C 1010.7 hPa WSW 13.0 km/h 13.0 km/h 46 % 0.0 mm
16:39 22.6 °C 10.1 °C 1010.7 hPa SSE 9.3 km/h 9.3 km/h 45 % 0.0 mm
16:44 22.6 °C 10.1 °C 1010.7 hPa SW 7.4 km/h 7.4 km/h 45 % 0.0 mm
16:49 22.6 °C 9.7 °C 1010.7 hPa West 11.4 km/h 11.4 km/h 44 % 0.0 mm
16:54 22.4 °C 9.9 °C 1010.7 hPa SW 13.0 km/h 13.0 km/h 45 % 0.0 mm
16:59 22.3 °C 9.4 °C 1010.7 hPa SSW 9.3 km/h 9.3 km/h 44 % 0.0 mm
17:04 22.4 °C 9.9 °C 1010.7 hPa WSW 7.4 km/h 7.4 km/h 45 % 0.0 mm
17:09 22.5 °C 9.9 °C 1010.7 hPa SSW 10.0 km/h 10.0 km/h 45 % 0.0 mm
17:14 22.4 °C 9.9 °C 1010.0 hPa WNW 11.1 km/h 11.1 km/h 45 % 0.0 mm
17:19 22.4 °C 9.9 °C 1010.0 hPa SSW 10.0 km/h 10.0 km/h 45 % 0.0 mm
17:31 22.2 °C 9.7 °C 1010.7 hPa SW 9.3 km/h 9.3 km/h 45 % 0.0 mm
17:36 21.9 °C 9.1 °C 1010.7 hPa NNW 7.4 km/h 7.4 km/h 44 % 0.0 mm
17:41 22.0 °C 9.5 °C 1010.7 hPa East 9.7 km/h 9.7 km/h 45 % 0.0 mm
17:46 20.8 °C 8.8 °C 1011.7 hPa NNE 9.5 km/h 9.5 km/h 46 % 0.0 mm
17:51 20.1 °C 8.4 °C 1011.7 hPa East 18.5 km/h 18.5 km/h 47 % 0.0 mm
17:56 19.3 °C 8.0 °C 1011.7 hPa East 16.7 km/h 16.7 km/h 48 % 0.0 mm
18:01 17.9 °C 7.3 °C 1011.7 hPa ENE 24.1 km/h 24.1 km/h 50 % 0.0 mm
18:06 17.2 °C 7.3 °C 1011.7 hPa East 18.5 km/h 18.5 km/h 52 % 0.0 mm
18:11 16.5 °C 7.7 °C 1011.7 hPa NNE 24.1 km/h 24.1 km/h 56 % 0.0 mm
18:16 15.9 °C 8.2 °C 1011.7 hPa ENE 18.5 km/h 18.5 km/h 60 % 0.0 mm
18:21 15.2 °C 7.7 °C 1011.7 hPa East 16.7 km/h 16.7 km/h 61 % 0.0 mm
18:26 15.0 °C 7.3 °C 1011.7 hPa ENE 15.8 km/h 15.8 km/h 60 % 0.0 mm
18:31 14.7 °C 6.8 °C 1012.8 hPa NNE 14.8 km/h 14.8 km/h 59 % 0.0 mm
18:36 14.3 °C 6.6 °C 1012.8 hPa East 16.7 km/h 16.7 km/h 60 % 0.0 mm
18:41 14.0 °C 6.6 °C 1012.8 hPa NNE 13.0 km/h 13.0 km/h 61 % 0.0 mm
18:46 13.8 °C 6.4 °C 1013.8 hPa NNE 16.7 km/h 16.7 km/h 61 % 0.0 mm
18:51 13.4 °C 6.5 °C 1013.8 hPa ENE 20.4 km/h 20.4 km/h 63 % 0.0 mm
18:56 13.5 °C 6.3 °C 1013.8 hPa ESE 16.7 km/h 16.7 km/h 62 % 0.0 mm
19:01 13.7 °C 6.6 °C 1013.8 hPa ENE 13.0 km/h 13.0 km/h 62 % 0.0 mm
19:06 13.3 °C 6.4 °C 1013.8 hPa NNE 18.5 km/h 18.5 km/h 63 % 0.0 mm
19:11 13.1 °C 6.4 °C 1013.8 hPa North 14.8 km/h 14.8 km/h 64 % 0.0 mm
19:16 12.8 °C 6.4 °C 1013.8 hPa NE 9.3 km/h 9.3 km/h 65 % 0.0 mm
19:21 12.7 °C 6.3 °C 1013.8 hPa NNE 7.4 km/h 7.4 km/h 65 % 0.0 mm
19:26 12.6 °C 6.4 °C 1013.8 hPa ENE 5.6 km/h 5.6 km/h 66 % 0.0 mm
19:30 10.0 °C 6.5 °C 1012.8 hPa WSW 3.2 km/h 3.2 km/h 79 % 0.0 mm
19:31 12.6 °C 6.8 °C 1013.8 hPa ESE 9.3 km/h 9.3 km/h 68 % 0.0 mm
19:36 12.5 °C 6.8 °C 1013.8 hPa ESE 9.5 km/h 9.5 km/h 68 % 0.0 mm
19:40 9.9 °C 6.4 °C 1012.8 hPa SW 3.2 km/h 3.2 km/h 79 % 0.0 mm
19:41 12.5 °C 6.8 °C 1013.8 hPa NE 7.4 km/h 7.4 km/h 68 % 0.0 mm
19:46 12.4 °C 6.9 °C 1013.8 hPa ESE 7.4 km/h 7.4 km/h 69 % 0.0 mm
19:50 9.8 °C 6.5 °C 1013.8 hPa SW 1.6 km/h 3.2 km/h 80 % 0.0 mm
19:51 12.5 °C 7.2 °C 1013.8 hPa ENE 9.7 km/h 9.7 km/h 70 % 0.0 mm
19:56 12.4 °C 6.9 °C 1013.8 hPa East 7.4 km/h 7.4 km/h 69 % 0.0 mm
20:00 9.9 °C 6.8 °C 1013.8 hPa Calm   4.8 km/h 81 % 0.0 mm
20:06 12.3 °C 7.4 °C 1013.8 hPa ENE 11.1 km/h 11.1 km/h 72 % 0.0 mm
20:10 10.0 °C 6.9 °C 1013.8 hPa Calm   1.6 km/h 81 % 0.0 mm
20:11 12.2 °C 7.5 °C 1013.8 hPa NE 9.3 km/h 9.7 km/h 73 % 0.0 mm
20:16 12.1 °C 7.4 °C 1013.8 hPa East 13.0 km/h 13.0 km/h 73 % 0.0 mm
20:20 10.0 °C 6.7 °C 1013.8 hPa Calm     80 % 0.0 mm
20:21 12.1 °C 7.4 °C 1013.8 hPa ENE 13.0 km/h 13.0 km/h 73 % 0.0 mm
20:26 12.0 °C 7.3 °C 1013.8 hPa ENE 9.3 km/h 9.3 km/h 73 % 0.0 mm
20:30 9.9 °C 6.6 °C 1013.8 hPa SSE 1.6 km/h 3.2 km/h 80 % 0.0 mm
20:31 11.9 °C 7.4 °C 1012.8 hPa ENE 7.4 km/h 7.4 km/h 74 % 0.0 mm
20:36 11.8 °C 7.1 °C 1012.8 hPa NE 11.1 km/h 11.1 km/h 73 % 0.0 mm
20:41 11.7 °C 7.2 °C 1012.8 hPa ENE 7.4 km/h 7.4 km/h 74 % 0.0 mm
20:46 11.7 °C 7.2 °C 1012.8 hPa NE 7.4 km/h 7.4 km/h 74 % 0.0 mm
20:50 9.8 °C 6.7 °C 1013.8 hPa Calm   1.6 km/h 81 % 0.0 mm
20:51 11.7 °C 7.4 °C 1012.8 hPa NE 9.3 km/h 9.3 km/h 75 % 0.0 mm
20:56 11.7 °C 7.2 °C 1012.8 hPa ENE 7.4 km/h 7.4 km/h 74 % 0.0 mm
21:00 9.6 °C 6.3 °C 1013.8 hPa SSW 1.6 km/h 3.2 km/h 80 % 0.0 mm
21:01 11.6 °C 7.3 °C 1012.8 hPa NE 9.3 km/h 9.3 km/h 75 % 0.0 mm
21:06 11.6 °C 7.3 °C 1012.8 hPa NE 6.9 km/h 6.9 km/h 75 % 0.0 mm
21:10 9.6 °C 6.3 °C 1013.8 hPa SW 1.6 km/h 3.2 km/h 80 % 0.0 mm
21:11 11.5 °C 7.4 °C 1012.8 hPa ENE 9.3 km/h 9.3 km/h 76 % 0.0 mm
21:16 11.5 °C 7.4 °C 1013.8 hPa ENE 7.4 km/h 7.4 km/h 76 % 0.0 mm
21:20 9.8 °C 6.5 °C 1013.8 hPa WSW 1.6 km/h 3.2 km/h 80 % 0.0 mm
21:21 11.5 °C 7.4 °C 1013.8 hPa NE 9.3 km/h 9.3 km/h 76 % 0.0 mm
21:26 11.5 °C 7.4 °C 1013.8 hPa ENE 11.1 km/h 11.1 km/h 76 % 0.0 mm
21:30 9.9 °C 6.6 °C 1013.8 hPa WSW 1.6 km/h 3.2 km/h 80 % 0.0 mm
21:31 11.5 °C 7.4 °C 1013.8 hPa NNE 9.5 km/h 9.5 km/h 76 % 0.0 mm
21:36 11.5 °C 7.6 °C 1013.8 hPa ENE 7.4 km/h 7.4 km/h 77 % 0.0 mm
21:40 9.9 °C 6.4 °C 1013.8 hPa WSW 3.2 km/h 3.2 km/h 79 % 0.0 mm
21:41 11.5 °C 7.6 °C 1013.8 hPa NNW 5.6 km/h 5.6 km/h 77 % 0.0 mm
21:46 11.5 °C 7.4 °C 1013.8 hPa NNE 5.6 km/h 5.6 km/h 76 % 0.0 mm
21:50 9.5 °C 6.2 °C 1013.8 hPa SW 1.6 km/h 3.2 km/h 80 % 0.0 mm
21:51 11.4 °C 7.3 °C 1013.8 hPa ENE 3.7 km/h 3.7 km/h 76 % 0.0 mm
21:56 11.4 °C 7.3 °C 1013.8 hPa NE 3.7 km/h 3.7 km/h 76 % 0.0 mm
22:00 9.4 °C 6.1 °C 1013.8 hPa Calm   3.2 km/h 80 % 0.0 mm
22:01 11.4 °C 7.3 °C 1013.8 hPa ENE 3.7 km/h 3.7 km/h 76 % 0.0 mm
22:06 11.4 °C 7.5 °C 1013.8 hPa ENE 1.9 km/h   77 % 0.0 mm
22:10 9.2 °C 6.1 °C 1013.8 hPa Calm     81 % 0.0 mm
22:11 11.4 °C 7.5 °C 1013.8 hPa Calm     77 % 0.0 mm
22:16 11.4 °C 7.5 °C 1013.8 hPa NNE 1.9 km/h 1.9 km/h 77 % 0.0 mm
22:21 11.3 °C 7.4 °C 1013.8 hPa Calm     77 % 0.0 mm
22:26 11.3 °C 7.4 °C 1013.8 hPa NNE 1.9 km/h 1.9 km/h 77 % 0.0 mm
22:30 9.2 °C 6.3 °C 1012.8 hPa Calm   3.2 km/h 82 % 0.0 mm
22:31 11.2 °C 7.3 °C 1013.8 hPa West 1.4 km/h   77 % 0.0 mm
22:36 11.2 °C 7.3 °C 1013.8 hPa West 2.6 km/h   77 % 0.0 mm
22:40 9.1 °C 6.2 °C 1012.8 hPa ENE 1.6 km/h 3.2 km/h 82 % 0.0 mm
22:41 11.2 °C 7.3 °C 1013.8 hPa WNW 1.9 km/h   77 % 0.0 mm
22:46 11.1 °C 7.2 °C 1013.8 hPa WNW 1.9 km/h 1.9 km/h 77 % 0.0 mm
22:50 9.1 °C 6.2 °C 1012.8 hPa NE 3.2 km/h 3.2 km/h 82 % 0.0 mm
22:51 11.1 °C 7.2 °C 1013.8 hPa Calm     77 % 0.0 mm
22:56 11.0 °C 7.1 °C 1013.8 hPa Calm     77 % 0.0 mm
23:00 9.0 °C 5.9 °C 1012.8 hPa NNE 1.6 km/h 1.6 km/h 81 % 0.0 mm
23:01 11.0 °C 6.9 °C 1013.8 hPa West 3.7 km/h 3.7 km/h 76 % 0.0 mm
23:06 10.8 °C 6.7 °C 1013.8 hPa WSW 3.7 km/h 3.7 km/h 76 % 0.0 mm
23:10 8.9 °C 5.8 °C 1012.8 hPa NNE 1.6 km/h 3.2 km/h 81 % 0.0 mm
23:11 10.8 °C 6.7 °C 1013.8 hPa SW 3.7 km/h 3.7 km/h 76 % 0.0 mm
23:16 10.6 °C 6.6 °C 1012.8 hPa SW 3.7 km/h 3.7 km/h 76 % 0.0 mm
23:20 8.8 °C 5.7 °C 1012.8 hPa NE 1.6 km/h 1.6 km/h 81 % 0.0 mm
23:21 10.5 °C 6.6 °C 1012.8 hPa SW 1.9 km/h   77 % 0.0 mm
23:26 10.4 °C 6.7 °C 1012.8 hPa WSW 1.9 km/h   78 % 0.0 mm
23:30 8.4 °C 5.2 °C 1012.8 hPa NE 1.6 km/h 3.2 km/h 80 % 0.0 mm
23:31 10.4 °C 6.6 °C 1013.8 hPa WSW 3.7 km/h 3.7 km/h 77 % 0.0 mm
23:36 10.3 °C 6.4 °C 1013.8 hPa WSW 3.7 km/h 3.7 km/h 77 % 0.0 mm
23:40 8.2 °C 5.1 °C 1012.8 hPa Calm   3.2 km/h 81 % 0.0 mm
23:41 10.2 °C 6.6 °C 1013.8 hPa SW 3.7 km/h   78 % 0.0 mm
23:46 10.2 °C 6.6 °C 1013.8 hPa SW 2.6 km/h 2.6 km/h 78 % 0.0 mm
23:50 8.3 °C 5.4 °C 1012.8 hPa Calm   3.2 km/h 82 % 0.0 mm
23:51 10.0 °C 6.3 °C 1013.8 hPa WSW 2.3 km/h   78 % 0.0 mm
23:56 10.0 °C 6.3 °C 1013.8 hPa WSW 3.7 km/h 3.7 km/h 78 % 0.0 mm
Meteo Sesrovires
Elogis d' Weather Underground - 3.75 mb

Guio original per  Jim McMurry - jmcmurry@mwt.net Adaptat per a la plantilla per  Wim van der Kuil - Leuven-Template.eu

Trobareu la nostra informacio del temps tambe a:

Weather Underground

AWEKAS